Terminal Aerodrome Forecast
Issued by NWS

Home | Current Version | Previous Version | Text Only | Print | Product List | Glossary On
Versions: 1 2 3 4 5 6 7 8 9 10 11 12 13 14 15 16 17 18 19 20 21 22 23 24
000
FTAK31 PANC 251734
TAFAHO
TAF
PAHO 251734Z 2518/2618 06008KT P6SM SCT050
     FM260200 VRB05KT P6SM SCT030 BKN050
     FM260900 04010KT P6SM BKN120
     FM261500 06012KT P6SM SCT050 BKN080=

USA.gov is the U.S. government's official web portal to all federal, state and local government web resources and services.